Time;durP1;ratioP1;P1;durP2;ratioP2;P2;SDS_P1;SDS_P2;PMS_P1;PMS_P2;Temp;Humidity;BMP_temperature;BMP_pressure;BME280_temperature;BME280_humidity;BME280_pressure;Samples;Min_cycle;Max_cycle;Signal;HPM_P1;HPM_P2
2022/03/06 00:02:10;;;;;;;50.63;25.10;;;;;;;4.33;100.00;99411.00;5069934;28;20207;-82
2022/03/06 00:04:38;;;;;;;42.90;24.60;;;;;;;4.38;100.00;99427.25;5069849;28;20235;-81
2022/03/06 00:07:05;;;;;;;47.57;28.77;;;;;;;4.38;100.00;99422.13;5069999;28;20196;-82
2022/03/06 00:09:32;;;;;;;44.10;27.07;;;;;;;4.34;100.00;99411.84;5069891;28;20202;-82
2022/03/06 00:11:59;;;;;;;51.10;26.87;;;;;;;4.31;100.00;99412.72;5069601;28;20202;-82
2022/03/06 00:14:26;;;;;;;54.03;29.23;;;;;;;4.36;100.00;99405.84;5070010;28;20305;-81
2022/03/06 00:16:53;;;;;;;55.30;31.97;;;;;;;4.36;100.00;99398.16;5069607;28;20230;-84
2022/03/06 00:19:21;;;;;;;47.13;29.27;;;;;;;4.30;100.00;99408.44;5070108;28;20199;-83
2022/03/06 00:21:48;;;;;;;50.00;28.90;;;;;;;4.27;100.00;99400.78;5069571;28;20201;-82
2022/03/06 00:24:15;;;;;;;48.47;28.13;;;;;;;4.15;100.00;99370.00;5069813;28;20293;-82
2022/03/06 00:26:42;;;;;;;44.67;26.20;;;;;;;4.45;100.00;99411.78;5070316;28;20692;-82
2022/03/06 00:29:09;;;;;;;44.63;27.57;;;;;;;4.27;100.00;99381.94;5073173;28;20196;-83
2022/03/06 00:31:36;;;;;;;48.63;28.40;;;;;;;4.35;100.00;99405.84;5073265;28;20283;-83
2022/03/06 00:34:02;;;;;;;38.33;22.87;;;;;;;4.31;100.00;99410.16;5073149;28;20591;-84
2022/03/06 00:36:31;;;;;;;44.03;26.13;;;;;;;4.34;100.00;99402.44;5072816;28;20219;-82
2022/03/06 00:38:58;;;;;;;43.63;24.87;;;;;;;4.10;100.00;99369.16;5072821;28;20203;-82
2022/03/06 00:41:25;;;;;;;48.70;28.37;;;;;;;4.30;100.00;99395.59;5073075;28;20317;-82
2022/03/06 00:43:51;;;;;;;46.67;27.83;;;;;;;4.37;100.00;99397.28;5073080;28;20192;-83
2022/03/06 00:46:18;;;;;;;45.17;25.63;;;;;;;4.43;100.00;99395.53;5072857;28;20198;-83
2022/03/06 00:48:45;;;;;;;44.90;28.37;;;;;;;4.20;100.00;99377.66;5072943;28;20584;-82
2022/03/06 00:51:13;;;;;;;48.67;26.10;;;;;;;4.26;100.00;99391.34;5072994;28;20256;-82
2022/03/06 00:53:42;;;;;;;46.97;27.50;;;;;;;4.27;100.00;99395.63;5072811;28;20602;-83
2022/03/06 00:56:09;;;;;;;55.47;29.87;;;;;;;4.23;100.00;99390.50;5072753;28;20226;-81
2022/03/06 00:58:37;;;;;;;47.17;27.43;;;;;;;4.28;100.00;99384.50;5073004;28;20198;-82
2022/03/06 01:01:05;;;;;;;46.97;28.27;;;;;;;4.18;100.00;99384.53;5072895;28;20660;-82
2022/03/06 01:03:33;;;;;;;44.87;27.20;;;;;;;4.12;100.00;99384.56;5073017;28;20299;-82
2022/03/06 01:06:00;;;;;;;38.93;23.13;;;;;;;4.16;100.00;99376.00;5072371;28;20187;-81
2022/03/06 01:08:27;;;;;;;48.17;25.50;;;;;;;4.15;100.00;99377.72;5072873;28;20222;-82
2022/03/06 01:10:56;;;;;;;48.30;27.37;;;;;;;4.04;100.00;99374.34;5072714;28;20242;-82
2022/03/06 01:13:23;;;;;;;47.60;27.10;;;;;;;3.98;100.00;99371.78;5072693;28;20225;-82
2022/03/06 01:15:50;;;;;;;46.87;26.97;;;;;;;4.14;100.00;99394.00;5072121;28;20229;-83
2022/03/06 01:18:20;;;;;;;41.80;25.77;;;;;;;4.18;100.00;99376.81;5072432;28;20210;-83
2022/03/06 01:20:46;;;;;;;45.67;26.53;;;;;;;4.14;100.00;99376.00;5072573;28;20211;-82
2022/03/06 01:23:13;;;;;;;46.80;26.57;;;;;;;3.86;100.00;99339.31;5072183;28;20207;-82
2022/03/06 01:25:40;;;;;;;47.40;27.20;;;;;;;4.05;100.00;99378.63;5072293;28;20211;-82
2022/03/06 01:28:09;;;;;;;45.00;27.70;;;;;;;4.03;100.00;99380.34;5072348;28;20584;-83
2022/03/06 01:30:35;;;;;;;45.20;25.67;;;;;;;4.02;100.00;99388.91;5072247;28;20294;-81
2022/03/06 01:33:03;;;;;;;45.37;25.63;;;;;;;3.95;100.00;99371.84;5071962;28;20195;-83
2022/03/06 01:35:30;;;;;;;31.80;17.23;;;;;;;3.71;100.00;99339.41;5072017;28;20223;-82
2022/03/06 01:37:57;;;;;;;43.80;23.13;;;;;;;3.68;100.00;99343.69;5071774;28;20641;-83
2022/03/06 01:40:24;;;;;;;44.00;25.20;;;;;;;3.95;100.00;99377.78;5071306;28;20208;-82
2022/03/06 01:42:52;;;;;;;40.90;24.33;;;;;;;3.88;100.00;99362.44;5071921;28;20247;-81
2022/03/06 01:45:23;;;;;;;41.40;24.97;;;;;;;3.87;100.00;99373.56;5071942;28;20784;-82
2022/03/06 01:47:52;;;;;;;32.60;19.80;;;;;;;3.86;100.00;99369.28;5071663;28;20203;-82
2022/03/06 01:50:22;;;;;;;39.80;24.20;;;;;;;3.72;100.00;99347.97;5071884;28;20234;-81
2022/03/06 01:52:50;;;;;;;41.63;22.77;;;;;;;3.83;100.00;99377.88;5071999;28;20589;-81
2022/03/06 01:55:19;;;;;;;42.53;26.13;;;;;;;3.83;100.00;99377.00;5071729;28;20202;-83
2022/03/06 01:57:48;;;;;;;40.07;24.63;;;;;;;3.64;100.00;99365.94;5071637;28;20585;-82
2022/03/06 02:00:17;;;;;;;41.37;24.20;;;;;;;3.74;100.00;99356.50;5071396;28;20227;-82
2022/03/06 02:02:46;;;;;;;46.33;25.60;;;;;;;3.78;100.00;99374.44;5071539;28;20201;-82
2022/03/06 02:05:14;;;;;;;40.57;23.33;;;;;;;3.68;100.00;99361.66;5071646;28;20210;-81
2022/03/06 02:07:41;;;;;;;41.33;24.07;;;;;;;3.73;100.00;99375.31;5071399;28;20196;-81
2022/03/06 02:10:09;;;;;;;42.93;25.23;;;;;;;3.64;100.00;99361.66;5071434;28;20197;-81
2022/03/06 02:12:37;;;;;;;38.70;22.00;;;;;;;3.44;100.00;99327.53;5071359;28;20211;-81
2022/03/06 02:15:07;;;;;;;32.53;18.10;;;;;;;3.62;100.00;99386.47;5071586;28;20208;-82
2022/03/06 02:17:37;;;;;;;32.90;20.63;;;;;;;3.60;100.00;99367.69;5071306;28;20611;-83
2022/03/06 02:20:08;;;;;;;39.13;23.47;;;;;;;3.33;100.00;99333.53;5071500;28;20211;-82
2022/03/06 02:22:38;;;;;;;37.00;24.20;;;;;;;3.58;100.00;99387.34;5071342;28;20192;-83
2022/03/06 02:25:07;;;;;;;38.70;22.80;;;;;;;3.49;100.00;99383.97;5071011;28;20196;-82
2022/03/06 02:27:34;;;;;;;39.57;23.50;;;;;;;3.43;100.00;99382.25;5071199;28;20194;-82
2022/03/06 02:30:04;;;;;;;35.00;19.13;;;;;;;3.19;100.00;99343.81;5070886;28;20577;-81
2022/03/06 02:32:32;;;;;;;31.97;20.63;;;;;;;3.45;100.00;99375.41;5071069;28;20231;-81
2022/03/06 02:34:58;;;;;;;40.87;22.23;;;;;;;3.41;100.00;99383.97;5071048;28;20592;-82
2022/03/06 02:37:25;;;;;;;32.63;20.13;;;;;;;3.33;100.00;99385.69;5071417;28;20224;-82
2022/03/06 02:39:54;;;;;;;35.73;21.47;;;;;;;3.06;100.00;99349.81;5070831;28;20283;-81
2022/03/06 02:42:24;;;;;;;30.10;16.57;;;;;;;3.34;100.00;99376.28;5070661;28;20227;-83
2022/03/06 02:44:51;;;;;;;35.80;23.23;;;;;;;3.28;100.00;99390.81;5071237;28;20319;-82
2022/03/06 02:47:18;;;;;;;35.93;22.47;;;;;;;3.27;100.00;99398.56;5070834;28;20642;-82
2022/03/06 02:49:45;;;;;;;29.17;17.33;;;;;;;3.20;100.00;99387.44;5070557;28;20196;-81
2022/03/06 02:52:12;;;;;;;37.80;21.23;;;;;;;3.24;100.00;99384.00;5070460;28;20219;-81
2022/03/06 02:54:39;;;;;;;38.17;21.47;;;;;;;3.16;100.00;99377.19;5070711;28;20196;-81
2022/03/06 02:57:08;;;;;;;36.23;20.27;;;;;;;3.19;100.00;99390.00;5070548;28;20220;-81
2022/03/06 02:59:36;;;;;;;36.90;20.90;;;;;;;3.06;100.00;99386.56;5070756;28;20588;-82
2022/03/06 03:02:02;;;;;;;38.33;21.97;;;;;;;3.07;100.00;99380.59;5070526;28;20594;-82
2022/03/06 03:04:29;;;;;;;40.07;20.43;;;;;;;3.14;100.00;99399.41;5071044;28;20197;-80
2022/03/06 03:06:56;;;;;;;36.67;20.67;;;;;;;3.17;100.00;99394.25;5070653;28;20279;-81
2022/03/06 03:09:25;;;;;;;32.73;19.73;;;;;;;3.09;100.00;99396.84;5070407;28;20192;-82
2022/03/06 03:11:51;;;;;;;36.60;21.07;;;;;;;3.10;100.00;99405.38;5070322;28;20210;-82
2022/03/06 03:14:20;;;;;;;32.43;18.40;;;;;;;2.76;100.00;99346.44;5070345;28;20204;-82
2022/03/06 03:16:47;;;;;;;34.10;19.97;;;;;;;2.99;100.00;99396.84;5070284;28;20602;-81
2022/03/06 03:19:14;;;;;;;30.20;18.43;;;;;;;2.57;100.00;99343.88;5070122;28;20205;-81
2022/03/06 03:21:41;;;;;;;31.23;16.27;;;;;;;2.83;100.00;99394.28;5070266;28;20273;-82
2022/03/06 03:24:09;;;;;;;29.77;17.93;;;;;;;2.83;100.00;99394.28;5070544;28;20675;-82
2022/03/06 03:26:36;;;;;;;33.80;19.70;;;;;;;2.78;100.00;99403.69;5070383;28;20587;-83
2022/03/06 03:29:03;;;;;;;30.20;17.17;;;;;;;2.77;100.00;99414.78;5070137;28;20202;-83
2022/03/06 03:31:31;;;;;;;42.03;20.40;;;;;;;2.69;100.00;99396.00;5070232;28;20202;-81
2022/03/06 03:33:58;;;;;;;21.20;12.70;;;;;;;2.72;100.00;99406.22;5070421;28;20191;-82
2022/03/06 03:36:25;;;;;;;36.00;20.13;;;;;;;2.78;100.00;99406.25;5070475;28;20227;-81
2022/03/06 03:38:52;;;;;;;37.13;20.70;;;;;;;2.72;100.00;99402.81;5070089;28;20200;-81
2022/03/06 03:41:19;;;;;;;36.03;20.77;;;;;;;2.58;100.00;99379.75;5070018;28;20227;-82
2022/03/06 03:43:46;;;;;;;37.83;19.73;;;;;;;2.71;100.00;99404.53;5069915;28;20202;-81
2022/03/06 03:46:13;;;;;;;35.37;20.80;;;;;;;2.43;100.00;99374.59;5069910;28;20191;-83
2022/03/06 03:48:41;;;;;;;35.17;20.80;;;;;;;2.67;100.00;99407.09;5070342;28;20192;-82
2022/03/06 03:51:08;;;;;;;37.93;19.87;;;;;;;2.60;100.00;99397.69;5070157;28;20200;-82
2022/03/06 03:53:35;;;;;;;33.30;17.80;;;;;;;2.67;100.00;99410.50;5070015;28;20204;-81
2022/03/06 03:56:04;;;;;;;34.63;19.80;;;;;;;2.53;100.00;99386.56;5070126;28;20668;-83
2022/03/06 03:58:31;;;;;;;33.00;19.17;;;;;;;2.67;100.00;99401.97;5070053;28;20199;-81
2022/03/06 04:00:58;;;;;;;34.93;19.43;;;;;;;2.68;100.00;99409.66;5069893;28;20685;-82
2022/03/06 04:03:25;;;;;;;35.10;20.47;;;;;;;2.60;100.00;99397.69;5073206;28;20196;-83
2022/03/06 04:05:54;;;;;;;36.13;18.67;;;;;;;2.58;100.00;99409.66;5073952;28;20222;-82
2022/03/06 04:08:21;;;;;;;36.13;20.80;;;;;;;2.55;100.00;99411.34;5073806;28;20192;-82
2022/03/06 04:10:48;;;;;;;37.13;19.73;;;;;;;2.63;100.00;99408.78;5073776;28;20219;-82
2022/03/06 04:13:15;;;;;;;38.97;21.80;;;;;;;2.49;100.00;99392.53;5073515;28;20207;-82
2022/03/06 04:15:45;;;;;;;40.40;23.10;;;;;;;2.62;100.00;99421.59;5073457;28;20574;-81
2022/03/06 04:18:11;;;;;;;41.53;23.43;;;;;;;2.59;100.00;99404.53;5073503;28;20797;-81
2022/03/06 04:20:38;;;;;;;43.17;21.03;;;;;;;2.53;100.00;99419.88;5073316;28;20200;-81
2022/03/06 04:23:07;;;;;;;39.40;20.37;;;;;;;2.46;100.00;99407.91;5072914;28;20204;-81
2022/03/06 04:25:34;;;;;;;41.83;21.80;;;;;;;2.55;100.00;99407.94;5070631;28;20282;-82
2022/03/06 04:28:01;;;;;;;39.40;21.13;;;;;;;2.52;100.00;99408.78;5073732;28;20194;-81
2022/03/06 04:30:28;;;;;;;42.40;21.23;;;;;;;2.51;100.00;99408.75;5072781;28;20200;-81
2022/03/06 04:32:55;;;;;;;42.73;22.50;;;;;;;2.59;100.00;99414.78;5073418;28;20680;-80
2022/03/06 04:35:22;;;;;;;42.40;22.93;;;;;;;2.35;100.00;99369.47;5073076;28;20198;-81
2022/03/06 04:37:49;;;;;;;37.30;20.67;;;;;;;2.30;100.00;99380.56;5073057;28;20219;-83
2022/03/06 04:40:17;;;;;;;38.30;20.53;;;;;;;2.49;100.00;99415.59;5072965;28;20578;-80
2022/03/06 04:42:44;;;;;;;36.67;19.20;;;;;;;2.22;100.00;99377.13;5071484;28;20311;-82
2022/03/06 04:45:11;;;;;;;42.60;21.40;;;;;;;2.40;100.00;99387.41;5071257;28;20200;-80
2022/03/06 04:47:38;;;;;;;38.80;20.50;;;;;;;2.42;100.00;99412.19;5053850;28;20697;-81
2022/03/06 04:50:06;;;;;;;36.13;20.33;;;;;;;2.02;100.00;99360.03;5052218;28;20230;-86
2022/03/06 04:52:33;;;;;;;39.70;21.63;;;;;;;2.38;100.00;99410.44;5052961;28;20217;-82
2022/03/06 04:55:00;;;;;;;43.83;22.33;;;;;;;2.44;100.00;99412.19;5052503;28;20242;-81
2022/03/06 04:57:28;;;;;;;37.37;21.20;;;;;;;2.53;100.00;99409.63;5067616;28;20215;-83
2022/03/06 04:59:55;;;;;;;39.77;21.73;;;;;;;2.44;100.00;99418.16;5071473;28;20219;-81
2022/03/06 05:02:22;;;;;;;41.80;22.67;;;;;;;2.10;100.00;99358.31;5072253;28;20220;-82
2022/03/06 05:04:50;;;;;;;42.97;23.27;;;;;;;2.47;100.00;99415.63;5071522;28;20231;-83
2022/03/06 05:07:17;;;;;;;33.73;20.13;;;;;;;2.36;100.00;99390.84;5071927;28;20211;-83
2022/03/06 05:09:43;;;;;;;42.23;22.83;;;;;;;2.44;100.00;99425.84;5072024;28;20303;-79
2022/03/06 05:12:11;;;;;;;42.20;23.67;;;;;;;1.93;100.00;99339.50;5072355;28;20226;-81
2022/03/06 05:14:39;;;;;;;44.37;20.80;;;;;;;2.19;100.00;99377.97;5071647;28;20216;-78
2022/03/06 05:17:06;;;;;;;41.40;22.73;;;;;;;2.50;100.00;99435.22;5072006;28;20246;-81
2022/03/06 05:19:33;;;;;;;41.40;22.03;;;;;;;2.52;100.00;99430.97;5072345;28;20224;-84
2022/03/06 05:22:00;;;;;;;44.30;23.53;;;;;;;2.46;100.00;99402.81;5072035;28;20594;-83
2022/03/06 05:24:28;;;;;;;40.90;21.83;;;;;;;2.45;100.00;99408.78;5072418;28;20204;-85
2022/03/06 05:26:54;;;;;;;38.37;22.07;;;;;;;2.55;100.00;99433.56;5072238;28;20195;-82
2022/03/06 05:29:21;;;;;;;35.40;20.27;;;;;;;2.13;100.00;99378.81;5072018;28;20684;-83
2022/03/06 05:31:50;;;;;;;38.43;20.40;;;;;;;2.42;100.00;99429.25;5067368;28;20598;-83
2022/03/06 05:34:17;;;;;;;44.37;23.57;;;;;;;2.18;100.00;99401.88;5070025;28;20228;-81
2022/03/06 05:36:44;;;;;;;45.57;24.93;;;;;;;2.45;100.00;99432.69;5070127;28;20220;-82
2022/03/06 05:39:10;;;;;;;48.80;24.30;;;;;;;2.47;100.00;99430.13;5071010;28;20196;-84
2022/03/06 05:41:37;;;;;;;42.93;21.67;;;;;;;2.24;100.00;99395.91;5072098;28;20243;-84
2022/03/06 05:44:05;;;;;;;44.83;23.80;;;;;;;2.53;100.00;99435.25;5072022;28;20687;-83
2022/03/06 05:46:31;;;;;;;44.53;24.13;;;;;;;2.41;100.00;99428.38;5071815;28;20203;-84
2022/03/06 05:49:00;;;;;;;44.13;23.20;;;;;;;2.54;100.00;99439.53;5070921;28;20192;-82
2022/03/06 05:51:27;;;;;;;49.63;25.67;;;;;;;2.52;100.00;99449.75;5066722;28;20227;-83
2022/03/06 05:53:53;;;;;;;45.53;24.30;;;;;;;2.39;100.00;99457.41;5069892;28;20289;-82
2022/03/06 05:56:20;;;;;;;43.30;22.97;;;;;;;2.29;100.00;99430.06;5065201;28;20188;-81
2022/03/06 05:58:49;;;;;;;44.93;22.70;;;;;;;2.34;100.00;99448.88;5070306;28;20220;-80
2022/03/06 06:01:17;;;;;;;37.87;20.43;;;;;;;2.33;100.00;99452.28;5069795;28;20221;-79
2022/03/06 06:03:43;;;;;;;43.83;24.43;;;;;;;2.25;100.00;99431.78;5069888;28;20258;-79
2022/03/06 06:06:12;;;;;;;41.73;23.00;;;;;;;2.33;100.00;99453.13;5068375;28;20305;-80
2022/03/06 06:08:39;;;;;;;48.47;24.30;;;;;;;2.34;100.00;99447.16;5069327;28;20574;-81
2022/03/06 06:11:06;;;;;;;44.57;24.47;;;;;;;2.35;100.00;99454.00;5068981;28;20207;-79
2022/03/06 06:13:36;;;;;;;50.17;24.47;;;;;;;2.11;100.00;99426.59;5069080;28;20188;-79
2022/03/06 06:16:03;;;;;;;55.50;26.50;;;;;;;2.14;100.00;99447.06;5067308;28;20192;-80
2022/03/06 06:18:31;;;;;;;52.57;25.33;;;;;;;2.16;100.00;99459.88;5068482;28;20215;-80
2022/03/06 06:21:00;;;;;;;44.87;23.47;;;;;;;2.07;100.00;99442.78;5068298;28;20708;-79
2022/03/06 06:23:29;;;;;;;47.17;25.90;;;;;;;2.18;100.00;99453.94;5068397;28;20666;-79
2022/03/06 06:25:56;;;;;;;46.00;24.03;;;;;;;2.13;100.00;99460.75;5067794;28;20207;-79
2022/03/06 06:28:23;;;;;;;47.93;24.27;;;;;;;2.18;100.00;99464.16;5068623;28;20188;-78
2022/03/06 06:30:50;;;;;;;47.90;22.77;;;;;;;2.42;100.00;99452.31;5069965;28;20208;-77
2022/03/06 06:33:17;;;;;;;52.70;28.07;;;;;;;2.34;100.00;99459.13;5069665;28;20288;-75
2022/03/06 06:35:44;;;;;;;41.93;22.17;;;;;;;2.32;100.00;99451.41;5068051;28;20223;-77
2022/03/06 06:38:11;;;;;;;52.97;28.20;;;;;;;2.31;100.00;99459.09;5068938;28;20215;-77
2022/03/06 06:40:39;;;;;;;53.80;26.67;;;;;;;1.99;100.00;99398.41;5068376;28;20592;-77
2022/03/06 06:43:06;;;;;;;49.97;25.70;;;;;;;2.18;100.00;99436.00;5066913;28;20194;-77
2022/03/06 06:45:33;;;;;;;45.47;21.20;;;;;;;2.33;100.00;99465.94;5067768;28;20192;-77
2022/03/06 06:48:01;;;;;;;49.90;26.73;;;;;;;2.24;100.00;99463.34;5068382;28;20202;-76
2022/03/06 06:50:28;;;;;;;52.83;27.10;;;;;;;2.07;100.00;99447.91;5063822;28;20198;-76
2022/03/06 06:52:55;;;;;;;49.53;25.67;;;;;;;2.34;100.00;99465.09;5068687;28;20199;-76
2022/03/06 06:55:22;;;;;;;51.23;27.10;;;;;;;2.34;100.00;99479.59;5069131;28;20283;-76
2022/03/06 06:57:50;;;;;;;49.93;26.70;;;;;;;2.30;100.00;99465.91;5068979;28;20220;-76
2022/03/06 07:00:17;;;;;;;56.30;28.70;;;;;;;2.31;100.00;99471.91;5049501;28;20223;-77
2022/03/06 07:02:46;;;;;;;56.60;27.17;;;;;;;2.41;100.00;99468.50;5064258;28;20215;-78
2022/03/06 07:05:13;;;;;;;55.57;28.07;;;;;;;2.42;100.00;99475.34;5068757;28;20208;-77
2022/03/06 07:07:40;;;;;;;49.53;27.37;;;;;;;2.36;100.00;99452.28;5068637;28;20581;-77
2022/03/06 07:10:09;;;;;;;97.27;42.17;;;;;;;2.49;100.00;99470.25;5069080;28;20191;-77
2022/03/06 07:12:42;;;;;;;50.10;26.47;;;;;;;2.46;100.00;99470.25;5068414;28;20196;-78
2022/03/06 07:15:13;;;;;;;45.67;24.83;;;;;;;2.52;100.00;99466.84;5068694;28;20232;-77
2022/03/06 07:17:39;;;;;;;51.00;27.70;;;;;;;2.29;100.00;99445.44;5068522;28;20629;-76
2022/03/06 07:20:08;;;;;;;44.47;25.03;;;;;;;2.27;100.00;99444.56;5068779;28;20202;-75
2022/03/06 07:22:35;;;;;;;45.73;24.17;;;;;;;2.35;100.00;99460.81;5068333;28;20564;-78
2022/03/06 07:25:02;;;;;;;44.37;23.23;;;;;;;2.52;100.00;99474.53;5070358;28;20199;-79
2022/03/06 07:27:29;;;;;;;41.70;23.00;;;;;;;2.42;100.00;99462.53;5069546;28;20196;-77
2022/03/06 07:29:56;;;;;;;33.97;19.00;;;;;;;2.49;100.00;99477.06;5068550;28;20579;-78
2022/03/06 07:32:24;;;;;;;43.33;23.60;;;;;;;2.54;100.00;99475.38;5069273;28;20199;-78
2022/03/06 07:34:51;;;;;;;38.37;20.60;;;;;;;2.55;100.00;99479.66;5061811;28;20204;-77
2022/03/06 07:37:18;;;;;;;43.00;24.73;;;;;;;2.44;100.00;99463.41;5067340;28;20216;-78
2022/03/06 07:39:45;;;;;;;43.47;22.37;;;;;;;2.47;100.00;99466.00;5073064;28;20591;-79
2022/03/06 07:42:12;;;;;;;37.43;19.30;;;;;;;2.43;100.00;99469.38;5071961;28;20227;-79
2022/03/06 07:44:39;;;;;;;42.80;24.43;;;;;;;2.44;100.00;99477.06;5072837;28;20733;-79
2022/03/06 07:47:07;;;;;;;44.03;24.43;;;;;;;2.50;100.00;99468.53;5073228;28;20219;-80
2022/03/06 07:49:35;;;;;;;40.70;22.87;;;;;;;2.35;100.00;99463.38;5072418;28;20254;-81
2022/03/06 07:52:02;;;;;;;38.17;20.90;;;;;;;2.45;100.00;99465.13;5072520;28;20257;-77
2022/03/06 07:54:29;;;;;;;43.23;22.60;;;;;;;2.14;100.00;99429.16;5072236;28;20215;-77
2022/03/06 07:56:56;;;;;;;36.97;16.17;;;;;;;2.47;100.00;99478.78;5072389;28;20220;-79
2022/03/06 07:59:25;;;;;;;40.97;22.17;;;;;;;2.38;100.00;99488.97;5071512;28;20216;-75
2022/03/06 08:01:53;;;;;;;47.53;23.93;;;;;;;2.42;100.00;99470.22;5069886;28;20227;-75
2022/03/06 08:04:20;;;;;;;46.37;23.90;;;;;;;2.36;100.00;99457.41;5070941;28;20212;-76
2022/03/06 08:06:49;;;;;;;45.13;23.63;;;;;;;2.44;100.00;99476.22;5072303;28;20310;-76
2022/03/06 08:09:16;;;;;;;47.07;23.83;;;;;;;2.29;100.00;99436.03;5072308;28;20215;-78
2022/03/06 08:11:43;;;;;;;65.47;31.33;;;;;;;2.31;100.00;99454.84;5073276;28;20192;-77
2022/03/06 08:14:10;;;;;;;70.53;35.27;;;;;;;2.47;100.00;99473.69;5073197;28;20669;-79
2022/03/06 08:16:37;;;;;;;58.83;29.00;;;;;;;2.30;100.00;99436.91;5073482;28;20698;-76
2022/03/06 08:19:04;;;;;;;51.80;23.50;;;;;;;2.50;100.00;99471.94;5071612;28;20607;-78
2022/03/06 08:21:31;;;;;;;50.63;26.67;;;;;;;2.44;100.00;99487.31;5072078;28;20203;-80
2022/03/06 08:24:00;;;;;;;57.50;27.43;;;;;;;2.43;100.00;99477.06;5071479;28;20266;-79
2022/03/06 08:26:27;;;;;;;36.13;20.40;;;;;;;2.49;100.00;99484.75;5071195;28;20279;-77
2022/03/06 08:28:54;;;;;;;43.37;21.73;;;;;;;2.22;100.00;99428.34;5071440;28;20266;-77
2022/03/06 08:31:21;;;;;;;50.13;26.33;;;;;;;2.51;100.00;99468.53;5071207;28;20202;-78
2022/03/06 08:33:48;;;;;;;39.67;21.30;;;;;;;2.57;100.00;99480.53;5069869;28;20200;-78
2022/03/06 08:36:16;;;;;;;40.73;23.10;;;;;;;2.61;100.00;99469.41;5070761;28;20614;-77
2022/03/06 08:38:43;;;;;;;41.63;24.10;;;;;;;2.25;100.00;99413.00;5070858;28;20216;-78
2022/03/06 08:41:11;;;;;;;41.20;22.80;;;;;;;2.65;100.00;99475.41;5071236;28;20621;-79
2022/03/06 08:43:38;;;;;;;34.97;18.50;;;;;;;2.40;100.00;99459.13;5071219;28;20211;-77
2022/03/06 08:46:05;;;;;;;27.53;15.53;;;;;;;2.52;100.00;99475.38;5070986;28;20196;-77
2022/03/06 08:48:32;;;;;;;35.80;21.10;;;;;;;2.57;100.00;99482.25;5070066;28;20192;-77
2022/03/06 08:51:00;;;;;;;37.73;21.23;;;;;;;2.53;100.00;99476.25;5070900;28;20584;-77
2022/03/06 08:53:27;;;;;;;35.83;19.77;;;;;;;2.52;100.00;99492.47;5070498;28;20192;-77
2022/03/06 08:55:54;;;;;;;37.13;20.47;;;;;;;2.34;100.00;99459.13;5070655;28;20188;-76
2022/03/06 08:58:22;;;;;;;34.67;20.07;;;;;;;2.52;100.00;99489.91;5070460;28;20212;-78
2022/03/06 09:00:49;;;;;;;36.30;20.03;;;;;;;2.32;100.00;99453.97;5069895;28;20202;-79
2022/03/06 09:03:16;;;;;;;38.37;21.10;;;;;;;2.41;100.00;99479.63;5070636;28;20203;-78
2022/03/06 09:05:43;;;;;;;35.17;20.60;;;;;;;2.15;100.00;99446.22;5070729;28;20196;-78
2022/03/06 09:08:11;;;;;;;35.17;20.93;;;;;;;2.12;100.00;99433.44;5070806;28;20196;-79
2022/03/06 09:10:39;;;;;;;34.40;18.33;;;;;;;2.47;100.00;99481.34;5069772;28;20765;-78
2022/03/06 09:13:06;;;;;;;39.87;22.47;;;;;;;2.18;100.00;99448.81;5071171;28;20226;-78
2022/03/06 09:15:35;;;;;;;35.10;18.93;;;;;;;2.17;100.00;99444.53;5071673;28;20216;-78
2022/03/06 09:18:02;;;;;;;38.17;20.23;;;;;;;2.41;100.00;99491.56;5071669;28;20224;-79
2022/03/06 09:20:30;;;;;;;27.83;14.60;;;;;;;2.44;100.00;99491.59;5071358;28;20227;-79
2022/03/06 09:22:56;;;;;;;34.73;20.63;;;;;;;2.21;100.00;99457.34;5071248;28;20220;-78
2022/03/06 09:25:23;;;;;;;36.90;21.23;;;;;;;2.30;100.00;99488.97;5071333;28;20242;-77
2022/03/06 09:27:50;;;;;;;37.80;20.10;;;;;;;2.33;100.00;99499.22;5070191;28;20317;-76
2022/03/06 09:30:18;;;;;;;32.70;17.83;;;;;;;2.41;100.00;99504.38;5070671;28;20204;-77
2022/03/06 09:32:46;;;;;;;31.63;18.43;;;;;;;2.43;100.00;99505.25;5071642;28;20282;-78
2022/03/06 09:35:13;;;;;;;31.77;18.93;;;;;;;2.37;100.00;99515.47;5071184;28;20196;-77
2022/03/06 09:37:40;;;;;;;36.10;20.33;;;;;;;2.23;100.00;99487.25;5071592;28;20216;-79
2022/03/06 09:40:08;;;;;;;35.77;18.57;;;;;;;2.22;100.00;99474.44;5071703;28;20692;-79
2022/03/06 09:42:35;;;;;;;50.47;25.23;;;;;;;2.37;100.00;99500.13;5071537;28;20236;-79
2022/03/06 09:45:05;;;;;;;35.73;20.27;;;;;;;2.34;100.00;99487.28;5070736;28;20200;-78
2022/03/06 09:47:33;;;;;;;46.53;24.60;;;;;;;2.37;100.00;99475.31;5071119;28;20680;-77
2022/03/06 09:50:02;;;;;;;41.83;22.70;;;;;;;2.49;100.00;99489.88;5071393;28;20680;-77
2022/03/06 09:52:29;;;;;;;38.67;18.97;;;;;;;2.50;100.00;99491.59;5070781;28;20225;-77
2022/03/06 09:54:56;;;;;;;34.77;20.47;;;;;;;2.41;100.00;99489.00;5070761;28;20308;-76
2022/03/06 09:57:23;;;;;;;50.47;26.77;;;;;;;2.35;100.00;99471.06;5070307;28;20202;-76
2022/03/06 09:59:51;;;;;;;29.43;16.97;;;;;;;2.42;100.00;99485.59;5069963;28;20230;-77
2022/03/06 10:02:17;;;;;;;37.40;18.80;;;;;;;2.43;100.00;99477.91;5068221;28;20202;-77
2022/03/06 10:04:46;;;;;;;38.07;21.93;;;;;;;2.38;100.00;99496.66;5068971;28;20231;-77
2022/03/06 10:07:16;;;;;;;29.53;18.00;;;;;;;2.35;100.00;99491.56;5068193;28;20279;-76
2022/03/06 10:09:45;;;;;;;31.60;18.83;;;;;;;2.42;100.00;99490.72;5068572;28;20203;-76
2022/03/06 10:12:20;;;;;;;28.57;17.43;;;;;;;2.51;100.00;99480.50;5068640;28;20213;-77
2022/03/06 10:14:48;;;;;;;32.03;17.80;;;;;;;2.47;100.00;99482.22;5067525;28;20316;-77
2022/03/06 10:17:18;;;;;;;25.37;15.23;;;;;;;2.43;100.00;99497.56;5066944;28;20655;-77
2022/03/06 10:19:51;;;;;;;30.70;16.43;;;;;;;2.37;100.00;99477.06;5067150;28;20575;-78
2022/03/06 10:22:20;;;;;;;30.90;18.47;;;;;;;2.37;100.00;99475.31;5065911;28;20224;-76
2022/03/06 10:24:48;;;;;;;34.27;19.37;;;;;;;2.39;100.00;99471.06;5069247;28;20220;-75
2022/03/06 10:27:15;;;;;;;32.73;18.90;;;;;;;2.38;100.00;99460.81;5069921;28;20226;-76
2022/03/06 10:29:42;;;;;;;32.63;18.50;;;;;;;2.31;100.00;99469.34;5069970;28;20227;-76
2022/03/06 10:32:09;;;;;;;44.87;27.00;;;;;;;2.42;100.00;99472.78;5069967;28;20223;-76
2022/03/06 10:34:37;;;;;;;41.20;21.33;;;;;;;2.37;100.00;99480.44;5069841;28;20223;-75
2022/03/06 10:37:05;;;;;;;28.70;18.17;;;;;;;2.35;100.00;99489.84;5069641;28;20246;-77
2022/03/06 10:39:45;;;;;;;58.63;33.33;;;;;;;2.15;100.00;99441.09;5068990;28;20223;-76
2022/03/06 10:42:12;;;;;;;30.23;18.57;;;;;;;2.15;100.00;99443.66;5066537;28;20241;-76
2022/03/06 10:44:45;;;;;;;25.50;14.90;;;;;;;2.18;100.00;99436.00;5069036;28;20226;-77
2022/03/06 10:47:12;;;;;;;31.87;17.47;;;;;;;2.24;100.00;99482.97;5069816;28;20231;-75
2022/03/06 10:49:39;;;;;;;32.73;18.87;;;;;;;2.37;100.00;99474.50;5069414;28;20219;-76
2022/03/06 10:52:15;;;;;;;31.87;17.67;;;;;;;1.95;100.00;99414.59;5069387;28;20212;-76
2022/03/06 10:54:51;;;;;;;31.00;18.60;;;;;;;2.28;100.00;99448.84;5070172;28;20223;-76
2022/03/06 10:57:18;;;;;;;33.50;18.27;;;;;;;2.37;100.00;99474.50;5069460;28;20214;-77
2022/03/06 10:59:46;;;;;;;64.73;32.27;;;;;;;2.25;100.00;99459.94;5068908;28;20232;-76
2022/03/06 11:02:13;;;;;;;82.23;36.17;;;;;;;2.24;100.00;99463.34;5068931;28;20628;-77
2022/03/06 11:04:41;;;;;;;44.67;23.83;;;;;;;2.10;100.00;99424.88;5049873;28;20590;-76
2022/03/06 11:07:09;;;;;;;33.50;19.77;;;;;;;2.27;100.00;99459.91;5057199;28;20211;-78
2022/03/06 11:09:37;;;;;;;29.40;17.80;;;;;;;1.89;100.00;99399.22;5066866;28;20216;-76
2022/03/06 11:12:07;;;;;;;33.47;18.67;;;;;;;2.16;100.00;99453.06;5069423;28;20703;-77
2022/03/06 11:14:36;;;;;;;31.20;19.13;;;;;;;2.17;100.00;99443.69;5068931;28;20215;-78
2022/03/06 11:17:03;;;;;;;28.60;16.47;;;;;;;2.19;100.00;99440.28;5069383;28;20629;-79
2022/03/06 11:19:33;;;;;;;33.20;17.93;;;;;;;1.91;100.00;99391.56;5069379;28;20231;-76